sensor_id;sensor_type;location;lat;lon;timestamp;pressure;altitude;pressure_sealevel;temperature;humidity
70971;BME280;58632;51.718;19.446;2023-03-03T00:00:49;99976.67;;;0.77;100.00
70971;BME280;58632;51.718;19.446;2023-03-03T00:03:21;99973.68;;;0.80;100.00
70971;BME280;58632;51.718;19.446;2023-03-03T00:05:46;99975.31;;;0.81;100.00
70971;BME280;58632;51.718;19.446;2023-03-03T00:08:12;99976.24;;;0.82;100.00
70971;BME280;58632;51.718;19.446;2023-03-03T00:10:37;99969.39;;;0.86;100.00
70971;BME280;58632;51.718;19.446;2023-03-03T00:13:03;99959.60;;;0.90;100.00
70971;BME280;58632;51.718;19.446;2023-03-03T00:15:31;99953.36;;;0.96;100.00
70971;BME280;58632;51.718;19.446;2023-03-03T00:17:56;99952.23;;;1.01;100.00
70971;BME280;58632;51.718;19.446;2023-03-03T00:22:51;99953.77;;;1.03;100.00
70971;BME280;58632;51.718;19.446;2023-03-03T00:27:44;99951.02;;;0.99;100.00
70971;BME280;58632;51.718;19.446;2023-03-03T00:30:19;99945.20;;;0.99;100.00
70971;BME280;58632;51.718;19.446;2023-03-03T00:32:47;99939.13;;;0.96;100.00
70971;BME280;58632;51.718;19.446;2023-03-03T00:35:29;99931.48;;;0.91;100.00
70971;BME280;58632;51.718;19.446;2023-03-03T00:38:00;99927.67;;;0.84;100.00
70971;BME280;58632;51.718;19.446;2023-03-03T00:40:36;99927.94;;;0.83;100.00
70971;BME280;58632;51.718;19.446;2023-03-03T00:43:11;99928.17;;;0.79;100.00
70971;BME280;58632;51.718;19.446;2023-03-03T00:45:44;99927.52;;;0.79;100.00
70971;BME280;58632;51.718;19.446;2023-03-03T00:48:24;99920.61;;;0.78;100.00
70971;BME280;58632;51.718;19.446;2023-03-03T00:50:51;99914.62;;;0.83;100.00
70971;BME280;58632;51.718;19.446;2023-03-03T00:53:18;99912.27;;;0.89;100.00
70971;BME280;58632;51.718;19.446;2023-03-03T00:55:44;99907.60;;;0.93;100.00
70971;BME280;58632;51.718;19.446;2023-03-03T00:58:10;99909.13;;;0.90;100.00
70971;BME280;58632;51.718;19.446;2023-03-03T01:00:36;99908.80;;;0.88;100.00
70971;BME280;58632;51.718;19.446;2023-03-03T01:03:03;99907.91;;;0.86;100.00
70971;BME280;58632;51.718;19.446;2023-03-03T01:05:29;99904.73;;;0.86;100.00
70971;BME280;58632;51.718;19.446;2023-03-03T01:07:55;99906.30;;;0.81;100.00
70971;BME280;58632;51.718;19.446;2023-03-03T01:10:20;99905.37;;;0.75;100.00
70971;BME280;58632;51.718;19.446;2023-03-03T01:12:46;99904.25;;;0.71;100.00
70971;BME280;58632;51.718;19.446;2023-03-03T01:15:12;99899.77;;;0.71;100.00
70971;BME280;58632;51.718;19.446;2023-03-03T01:17:38;99899.56;;;0.71;100.00
70971;BME280;58632;51.718;19.446;2023-03-03T01:20:05;99903.44;;;0.69;100.00
70971;BME280;58632;51.718;19.446;2023-03-03T01:22:31;99906.14;;;0.66;100.00
70971;BME280;58632;51.718;19.446;2023-03-03T01:24:57;99905.38;;;0.65;100.00
70971;BME280;58632;51.718;19.446;2023-03-03T01:27:22;99899.48;;;0.68;100.00
70971;BME280;58632;51.718;19.446;2023-03-03T01:29:48;99893.09;;;0.66;100.00
70971;BME280;58632;51.718;19.446;2023-03-03T01:32:14;99894.45;;;0.66;100.00
70971;BME280;58632;51.718;19.446;2023-03-03T01:34:40;99891.58;;;0.70;100.00
70971;BME280;58632;51.718;19.446;2023-03-03T01:37:05;99889.31;;;0.75;100.00
70971;BME280;58632;51.718;19.446;2023-03-03T01:39:30;99886.36;;;0.77;100.00
70971;BME280;58632;51.718;19.446;2023-03-03T01:41:56;99888.83;;;0.75;100.00
70971;BME280;58632;51.718;19.446;2023-03-03T01:44:21;99885.73;;;0.72;100.00
70971;BME280;58632;51.718;19.446;2023-03-03T01:46:52;99889.84;;;0.63;100.00
70971;BME280;58632;51.718;19.446;2023-03-03T01:51:47;99889.13;;;0.52;100.00
70971;BME280;58632;51.718;19.446;2023-03-03T01:54:15;99889.73;;;0.48;100.00
70971;BME280;58632;51.718;19.446;2023-03-03T01:56:42;99883.95;;;0.47;100.00
70971;BME280;58632;51.718;19.446;2023-03-03T01:59:10;99879.08;;;0.45;100.00
70971;BME280;58632;51.718;19.446;2023-03-03T02:01:38;99880.54;;;0.40;100.00
70971;BME280;58632;51.718;19.446;2023-03-03T02:04:04;99882.44;;;0.37;100.00
70971;BME280;58632;51.718;19.446;2023-03-03T02:06:30;99884.04;;;0.35;100.00
70971;BME280;58632;51.718;19.446;2023-03-03T02:09:02;99887.03;;;0.33;100.00
70971;BME280;58632;51.718;19.446;2023-03-03T02:11:29;99897.66;;;0.30;100.00
70971;BME280;58632;51.718;19.446;2023-03-03T02:13:56;99898.42;;;0.27;100.00
70971;BME280;58632;51.718;19.446;2023-03-03T02:16:22;99895.09;;;0.28;100.00
70971;BME280;58632;51.718;19.446;2023-03-03T02:18:47;99885.74;;;0.29;100.00
70971;BME280;58632;51.718;19.446;2023-03-03T02:21:20;99886.55;;;0.34;100.00
70971;BME280;58632;51.718;19.446;2023-03-03T02:23:49;99881.39;;;0.39;100.00
70971;BME280;58632;51.718;19.446;2023-03-03T02:26:18;99878.42;;;0.44;100.00
70971;BME280;58632;51.718;19.446;2023-03-03T02:28:46;99872.46;;;0.51;100.00
70971;BME280;58632;51.718;19.446;2023-03-03T02:31:13;99868.44;;;0.54;100.00
70971;BME280;58632;51.718;19.446;2023-03-03T02:33:40;99861.05;;;0.52;100.00
70971;BME280;58632;51.718;19.446;2023-03-03T02:36:08;99862.56;;;0.52;100.00
70971;BME280;58632;51.718;19.446;2023-03-03T02:41:14;99860.46;;;0.48;100.00
70971;BME280;58632;51.718;19.446;2023-03-03T02:43:43;99866.46;;;0.44;100.00
70971;BME280;58632;51.718;19.446;2023-03-03T02:46:11;99868.70;;;0.42;100.00
70971;BME280;58632;51.718;19.446;2023-03-03T02:48:36;99867.29;;;0.41;100.00
70971;BME280;58632;51.718;19.446;2023-03-03T02:51:02;99863.72;;;0.40;100.00
70971;BME280;58632;51.718;19.446;2023-03-03T02:53:28;99868.35;;;0.34;100.00
70971;BME280;58632;51.718;19.446;2023-03-03T02:55:54;99875.02;;;0.33;100.00
70971;BME280;58632;51.718;19.446;2023-03-03T02:58:19;99873.02;;;0.29;100.00
70971;BME280;58632;51.718;19.446;2023-03-03T03:00:44;99868.73;;;0.29;100.00
70971;BME280;58632;51.718;19.446;2023-03-03T03:03:12;99875.05;;;0.31;100.00
70971;BME280;58632;51.718;19.446;2023-03-03T03:05:37;99872.10;;;0.27;100.00
70971;BME280;58632;51.718;19.446;2023-03-03T03:08:03;99869.77;;;0.26;100.00
70971;BME280;58632;51.718;19.446;2023-03-03T03:10:29;99868.54;;;0.24;100.00
70971;BME280;58632;51.718;19.446;2023-03-03T03:12:54;99863.71;;;0.25;100.00
70971;BME280;58632;51.718;19.446;2023-03-03T03:15:20;99866.29;;;0.24;100.00
70971;BME280;58632;51.718;19.446;2023-03-03T03:17:45;99867.27;;;0.21;100.00
70971;BME280;58632;51.718;19.446;2023-03-03T03:20:11;99871.67;;;0.19;100.00
70971;BME280;58632;51.718;19.446;2023-03-03T03:22:37;99874.79;;;0.17;100.00
70971;BME280;58632;51.718;19.446;2023-03-03T03:25:02;99878.58;;;0.10;100.00
70971;BME280;58632;51.718;19.446;2023-03-03T03:27:28;99869.98;;;0.08;100.00
70971;BME280;58632;51.718;19.446;2023-03-03T03:29:54;99870.77;;;0.07;100.00
70971;BME280;58632;51.718;19.446;2023-03-03T03:32:19;99878.38;;;0.08;100.00
70971;BME280;58632;51.718;19.446;2023-03-03T03:34:45;99882.61;;;0.10;100.00
70971;BME280;58632;51.718;19.446;2023-03-03T03:37:10;99880.20;;;0.12;100.00
70971;BME280;58632;51.718;19.446;2023-03-03T03:39:36;99878.21;;;0.16;100.00
70971;BME280;58632;51.718;19.446;2023-03-03T03:42:01;99877.89;;;0.16;100.00
70971;BME280;58632;51.718;19.446;2023-03-03T03:44:27;99868.64;;;0.13;100.00
70971;BME280;58632;51.718;19.446;2023-03-03T03:46:53;99871.02;;;0.09;100.00
70971;BME280;58632;51.718;19.446;2023-03-03T03:49:19;99880.21;;;0.04;100.00
70971;BME280;58632;51.718;19.446;2023-03-03T03:51:44;99888.34;;;-0.01;100.00
70971;BME280;58632;51.718;19.446;2023-03-03T03:54:10;99896.20;;;-0.02;100.00
70971;BME280;58632;51.718;19.446;2023-03-03T03:56:35;99906.73;;;-0.03;100.00
70971;BME280;58632;51.718;19.446;2023-03-03T03:59:01;99901.90;;;-0.02;100.00
70971;BME280;58632;51.718;19.446;2023-03-03T04:01:26;99896.88;;;-0.03;100.00
70971;BME280;58632;51.718;19.446;2023-03-03T04:03:52;99884.91;;;-0.04;100.00
70971;BME280;58632;51.718;19.446;2023-03-03T04:06:18;99885.45;;;-0.04;100.00
70971;BME280;58632;51.718;19.446;2023-03-03T04:08:43;99884.59;;;-0.08;100.00
70971;BME280;58632;51.718;19.446;2023-03-03T04:11:09;99876.20;;;-0.11;100.00
70971;BME280;58632;51.718;19.446;2023-03-03T04:13:34;99875.50;;;-0.10;100.00
70971;BME280;58632;51.718;19.446;2023-03-03T04:16:01;99869.80;;;-0.11;100.00
70971;BME280;58632;51.718;19.446;2023-03-03T04:18:26;99868.69;;;-0.09;100.00
70971;BME280;58632;51.718;19.446;2023-03-03T04:20:52;99863.34;;;-0.06;100.00
70971;BME280;58632;51.718;19.446;2023-03-03T04:23:19;99863.89;;;-0.02;100.00
70971;BME280;58632;51.718;19.446;2023-03-03T04:25:45;99862.30;;;0.00;100.00
70971;BME280;58632;51.718;19.446;2023-03-03T04:28:11;99850.41;;;0.02;100.00
70971;BME280;58632;51.718;19.446;2023-03-03T04:30:36;99839.33;;;0.03;100.00
70971;BME280;58632;51.718;19.446;2023-03-03T04:33:02;99837.73;;;0.00;100.00
70971;BME280;58632;51.718;19.446;2023-03-03T04:35:27;99834.88;;;-0.06;100.00
70971;BME280;58632;51.718;19.446;2023-03-03T04:37:53;99837.36;;;-0.09;100.00
70971;BME280;58632;51.718;19.446;2023-03-03T04:40:19;99838.44;;;-0.13;100.00
70971;BME280;58632;51.718;19.446;2023-03-03T04:42:44;99844.11;;;-0.15;100.00
70971;BME280;58632;51.718;19.446;2023-03-03T04:45:10;99838.83;;;-0.16;100.00
70971;BME280;58632;51.718;19.446;2023-03-03T04:47:35;99844.07;;;-0.18;100.00
70971;BME280;58632;51.718;19.446;2023-03-03T04:50:01;99847.58;;;-0.22;100.00
70971;BME280;58632;51.718;19.446;2023-03-03T04:52:27;99846.75;;;-0.25;100.00
70971;BME280;58632;51.718;19.446;2023-03-03T04:54:53;99841.52;;;-0.24;100.00
70971;BME280;58632;51.718;19.446;2023-03-03T04:57:18;99835.04;;;-0.23;100.00
70971;BME280;58632;51.718;19.446;2023-03-03T04:59:44;99836.20;;;-0.20;100.00
70971;BME280;58632;51.718;19.446;2023-03-03T05:02:10;99829.91;;;-0.19;100.00
70971;BME280;58632;51.718;19.446;2023-03-03T05:04:37;99833.21;;;-0.21;100.00
70971;BME280;58632;51.718;19.446;2023-03-03T05:07:02;99839.25;;;-0.25;100.00
70971;BME280;58632;51.718;19.446;2023-03-03T05:09:28;99838.84;;;-0.28;100.00
70971;BME280;58632;51.718;19.446;2023-03-03T05:11:53;99844.55;;;-0.28;100.00
70971;BME280;58632;51.718;19.446;2023-03-03T05:14:19;99850.02;;;-0.28;100.00
70971;BME280;58632;51.718;19.446;2023-03-03T05:16:44;99853.62;;;-0.25;100.00
70971;BME280;58632;51.718;19.446;2023-03-03T05:19:10;99850.27;;;-0.22;100.00
70971;BME280;58632;51.718;19.446;2023-03-03T05:21:36;99847.85;;;-0.17;100.00
70971;BME280;58632;51.718;19.446;2023-03-03T05:24:02;99845.89;;;-0.15;100.00
70971;BME280;58632;51.718;19.446;2023-03-03T05:26:28;99845.80;;;-0.14;100.00
70971;BME280;58632;51.718;19.446;2023-03-03T05:28:53;99847.40;;;-0.15;100.00
70971;BME280;58632;51.718;19.446;2023-03-03T05:31:19;99850.75;;;-0.18;100.00
70971;BME280;58632;51.718;19.446;2023-03-03T05:33:45;99855.30;;;-0.16;100.00
70971;BME280;58632;51.718;19.446;2023-03-03T05:36:10;99853.43;;;-0.11;100.00
70971;BME280;58632;51.718;19.446;2023-03-03T05:38:36;99860.85;;;-0.07;100.00
70971;BME280;58632;51.718;19.446;2023-03-03T05:41:01;99868.19;;;-0.10;100.00
70971;BME280;58632;51.718;19.446;2023-03-03T05:43:27;99863.96;;;-0.08;100.00
70971;BME280;58632;51.718;19.446;2023-03-03T05:45:56;99864.29;;;-0.08;100.00
70971;BME280;58632;51.718;19.446;2023-03-03T05:48:21;99867.57;;;-0.12;100.00
70971;BME280;58632;51.718;19.446;2023-03-03T05:50:47;99867.27;;;-0.15;100.00
70971;BME280;58632;51.718;19.446;2023-03-03T05:53:12;99866.33;;;-0.12;100.00
70971;BME280;58632;51.718;19.446;2023-03-03T05:55:38;99859.50;;;-0.12;100.00
70971;BME280;58632;51.718;19.446;2023-03-03T05:58:03;99865.77;;;-0.15;100.00
70971;BME280;58632;51.718;19.446;2023-03-03T06:00:29;99876.25;;;-0.15;100.00
70971;BME280;58632;51.718;19.446;2023-03-03T06:02:54;99878.89;;;-0.16;100.00
70971;BME280;58632;51.718;19.446;2023-03-03T06:05:20;99883.01;;;-0.13;100.00
70971;BME280;58632;51.718;19.446;2023-03-03T06:07:46;99880.29;;;-0.11;100.00
70971;BME280;58632;51.718;19.446;2023-03-03T06:10:11;99877.85;;;-0.08;100.00
70971;BME280;58632;51.718;19.446;2023-03-03T06:12:37;99881.89;;;-0.08;100.00
70971;BME280;58632;51.718;19.446;2023-03-03T06:15:03;99881.48;;;-0.06;100.00
70971;BME280;58632;51.718;19.446;2023-03-03T06:17:29;99885.71;;;-0.08;100.00
70971;BME280;58632;51.718;19.446;2023-03-03T06:19:54;99879.56;;;-0.05;100.00
70971;BME280;58632;51.718;19.446;2023-03-03T06:22:20;99874.19;;;0.05;100.00
70971;BME280;58632;51.718;19.446;2023-03-03T06:24:46;99871.27;;;0.12;100.00
70971;BME280;58632;51.718;19.446;2023-03-03T06:27:11;99867.69;;;0.18;100.00
70971;BME280;58632;51.718;19.446;2023-03-03T06:29:37;99870.37;;;0.28;100.00
70971;BME280;58632;51.718;19.446;2023-03-03T06:32:03;99869.10;;;0.33;100.00
70971;BME280;58632;51.718;19.446;2023-03-03T06:34:29;99871.77;;;0.35;100.00
70971;BME280;58632;51.718;19.446;2023-03-03T06:36:55;99862.95;;;0.43;100.00
70971;BME280;58632;51.718;19.446;2023-03-03T06:39:21;99863.21;;;0.53;100.00
70971;BME280;58632;51.718;19.446;2023-03-03T06:41:46;99866.53;;;0.60;100.00
70971;BME280;58632;51.718;19.446;2023-03-03T06:44:12;99865.94;;;0.71;100.00
70971;BME280;58632;51.718;19.446;2023-03-03T06:46:38;99863.02;;;0.76;100.00
70971;BME280;58632;51.718;19.446;2023-03-03T06:49:03;99864.41;;;0.81;100.00
70971;BME280;58632;51.718;19.446;2023-03-03T06:53:55;99874.42;;;0.79;100.00
70971;BME280;58632;51.718;19.446;2023-03-03T06:56:24;99877.86;;;0.78;100.00
70971;BME280;58632;51.718;19.446;2023-03-03T06:58:52;99872.39;;;0.75;100.00
70971;BME280;58632;51.718;19.446;2023-03-03T07:01:18;99868.89;;;0.70;100.00
70971;BME280;58632;51.718;19.446;2023-03-03T07:03:44;99869.84;;;0.68;100.00
70971;BME280;58632;51.718;19.446;2023-03-03T07:06:23;99863.73;;;0.63;100.00
70971;BME280;58632;51.718;19.446;2023-03-03T07:08:49;99872.80;;;0.61;100.00
70971;BME280;58632;51.718;19.446;2023-03-03T07:11:16;99867.71;;;0.60;100.00
70971;BME280;58632;51.718;19.446;2023-03-03T07:13:46;99865.43;;;0.64;100.00
70971;BME280;58632;51.718;19.446;2023-03-03T07:16:12;99865.14;;;0.68;100.00
70971;BME280;58632;51.718;19.446;2023-03-03T07:18:58;99867.08;;;0.73;100.00
70971;BME280;58632;51.718;19.446;2023-03-03T07:21:32;99855.70;;;0.78;100.00
70971;BME280;58632;51.718;19.446;2023-03-03T07:23:58;99850.58;;;0.79;100.00
70971;BME280;58632;51.718;19.446;2023-03-03T07:26:34;99853.52;;;0.75;100.00
70971;BME280;58632;51.718;19.446;2023-03-03T07:31:38;99854.74;;;0.87;100.00
70971;BME280;58632;51.718;19.446;2023-03-03T07:34:13;99868.45;;;0.87;100.00
70971;BME280;58632;51.718;19.446;2023-03-03T07:36:40;99873.19;;;0.91;100.00
70971;BME280;58632;51.718;19.446;2023-03-03T07:39:25;99882.06;;;0.90;100.00
70971;BME280;58632;51.718;19.446;2023-03-03T07:41:54;99885.20;;;0.85;100.00
70971;BME280;58632;51.718;19.446;2023-03-03T07:44:25;99885.15;;;0.80;100.00
70971;BME280;58632;51.718;19.446;2023-03-03T07:46:55;99884.67;;;0.64;100.00
70971;BME280;58632;51.718;19.446;2023-03-03T07:49:32;99883.23;;;0.51;100.00
70971;BME280;58632;51.718;19.446;2023-03-03T07:51:59;99880.27;;;0.45;100.00
70971;BME280;58632;51.718;19.446;2023-03-03T07:54:34;99884.48;;;0.47;100.00
70971;BME280;58632;51.718;19.446;2023-03-03T07:57:06;99879.79;;;0.56;100.00
70971;BME280;58632;51.718;19.446;2023-03-03T07:59:37;99875.39;;;0.68;100.00
70971;BME280;58632;51.718;19.446;2023-03-03T08:02:05;99876.37;;;0.79;100.00
70971;BME280;58632;51.718;19.446;2023-03-03T08:04:41;99881.65;;;0.79;100.00
70971;BME280;58632;51.718;19.446;2023-03-03T08:07:13;99875.18;;;0.80;100.00
70971;BME280;58632;51.718;19.446;2023-03-03T08:09:51;99868.70;;;0.91;100.00
70971;BME280;58632;51.718;19.446;2023-03-03T08:14:46;99867.89;;;1.02;100.00
70971;BME280;58632;51.718;19.446;2023-03-03T08:17:16;99870.29;;;1.05;100.00
70971;BME280;58632;51.718;19.446;2023-03-03T08:19:44;99866.64;;;1.09;100.00
70971;BME280;58632;51.718;19.446;2023-03-03T08:22:24;99865.26;;;1.10;100.00
70971;BME280;58632;51.718;19.446;2023-03-03T08:24:54;99866.97;;;1.09;100.00
70971;BME280;58632;51.718;19.446;2023-03-03T08:27:20;99866.27;;;1.07;100.00
70971;BME280;58632;51.718;19.446;2023-03-03T08:29:46;99867.95;;;1.11;100.00
70971;BME280;58632;51.718;19.446;2023-03-03T08:32:11;99867.82;;;1.20;100.00
70971;BME280;58632;51.718;19.446;2023-03-03T08:34:37;99867.70;;;1.27;100.00
70971;BME280;58632;51.718;19.446;2023-03-03T08:37:02;99871.21;;;1.33;100.00
70971;BME280;58632;51.718;19.446;2023-03-03T08:39:28;99872.90;;;1.45;100.00
70971;BME280;58632;51.718;19.446;2023-03-03T08:41:54;99870.52;;;1.51;100.00
70971;BME280;58632;51.718;19.446;2023-03-03T08:44:19;99876.05;;;1.56;100.00
70971;BME280;58632;51.718;19.446;2023-03-03T08:46:45;99872.45;;;1.64;100.00
70971;BME280;58632;51.718;19.446;2023-03-03T08:49:10;99873.73;;;1.74;100.00
70971;BME280;58632;51.718;19.446;2023-03-03T08:51:37;99880.39;;;1.86;100.00
70971;BME280;58632;51.718;19.446;2023-03-03T08:54:03;99886.90;;;2.00;100.00
70971;BME280;58632;51.718;19.446;2023-03-03T08:56:28;99886.61;;;1.97;100.00
70971;BME280;58632;51.718;19.446;2023-03-03T08:58:53;99890.29;;;1.97;100.00
70971;BME280;58632;51.718;19.446;2023-03-03T09:01:19;99892.70;;;1.95;100.00
70971;BME280;58632;51.718;19.446;2023-03-03T09:03:45;99891.08;;;1.95;100.00
70971;BME280;58632;51.718;19.446;2023-03-03T09:06:10;99899.88;;;1.94;100.00
70971;BME280;58632;51.718;19.446;2023-03-03T09:08:36;99903.16;;;1.91;100.00
70971;BME280;58632;51.718;19.446;2023-03-03T09:11:02;99901.44;;;2.02;100.00
70971;BME280;58632;51.718;19.446;2023-03-03T09:13:29;99899.92;;;2.26;100.00
70971;BME280;58632;51.718;19.446;2023-03-03T09:15:56;99901.73;;;2.35;100.00
70971;BME280;58632;51.718;19.446;2023-03-03T09:18:34;99903.84;;;2.48;100.00
70971;BME280;58632;51.718;19.446;2023-03-03T09:21:01;99897.75;;;2.54;100.00
70971;BME280;58632;51.718;19.446;2023-03-03T09:23:28;99901.05;;;2.55;100.00
70971;BME280;58632;51.718;19.446;2023-03-03T09:25:56;99898.06;;;2.47;100.00
70971;BME280;58632;51.718;19.446;2023-03-03T09:28:29;99892.16;;;2.42;100.00
70971;BME280;58632;51.718;19.446;2023-03-03T09:30:59;99891.30;;;2.46;100.00
70971;BME280;58632;51.718;19.446;2023-03-03T09:33:37;99883.41;;;2.49;100.00
70971;BME280;58632;51.718;19.446;2023-03-03T09:36:23;99881.92;;;2.60;100.00
70971;BME280;58632;51.718;19.446;2023-03-03T09:38:49;99886.13;;;2.78;100.00
70971;BME280;58632;51.718;19.446;2023-03-03T09:57:13;99885.45;;;3.49;100.00
70971;BME280;58632;51.718;19.446;2023-03-03T09:59:46;99887.55;;;3.57;100.00
70971;BME280;58632;51.718;19.446;2023-03-03T10:07:49;99892.33;;;3.81;100.00
70971;BME280;58632;51.718;19.446;2023-03-03T10:20:51;99877.77;;;3.40;100.00
70971;BME280;58632;51.718;19.446;2023-03-03T10:23:20;99872.50;;;3.55;100.00
70971;BME280;58632;51.718;19.446;2023-03-03T10:28:32;99880.23;;;3.59;100.00
70971;BME280;58632;51.718;19.446;2023-03-03T10:34:06;99883.39;;;3.47;100.00
70971;BME280;58632;51.718;19.446;2023-03-03T10:36:45;99881.52;;;3.48;100.00
70971;BME280;58632;51.718;19.446;2023-03-03T10:44:19;99874.36;;;3.39;100.00
70971;BME280;58632;51.718;19.446;2023-03-03T10:52:00;99871.88;;;3.12;100.00
70971;BME280;58632;51.718;19.446;2023-03-03T10:57:03;99871.81;;;3.31;100.00
70971;BME280;58632;51.718;19.446;2023-03-03T11:02:28;99864.79;;;3.31;100.00
70971;BME280;58632;51.718;19.446;2023-03-03T11:08:00;99855.96;;;3.30;100.00
70971;BME280;58632;51.718;19.446;2023-03-03T11:15:27;99845.95;;;3.32;100.00
70971;BME280;58632;51.718;19.446;2023-03-03T11:20:37;99834.13;;;3.39;100.00
70971;BME280;58632;51.718;19.446;2023-03-03T11:25:49;99832.84;;;3.32;100.00
70971;BME280;58632;51.718;19.446;2023-03-03T11:33:22;99837.86;;;3.45;100.00
70971;BME280;58632;51.718;19.446;2023-03-03T11:40:53;99842.27;;;3.19;100.00
70971;BME280;58632;51.718;19.446;2023-03-03T11:46:17;99844.77;;;3.06;100.00
70971;BME280;58632;51.718;19.446;2023-03-03T11:51:33;99850.00;;;2.81;100.00
70971;BME280;58632;51.718;19.446;2023-03-03T11:57:09;99848.96;;;2.71;100.00
70971;BME280;58632;51.718;19.446;2023-03-03T12:04:43;99856.26;;;2.68;100.00
70971;BME280;58632;51.718;19.446;2023-03-03T12:12:32;99843.05;;;2.60;100.00
70971;BME280;58632;51.718;19.446;2023-03-03T12:15:12;99849.86;;;2.64;100.00
70971;BME280;58632;51.718;19.446;2023-03-03T12:25:34;99843.63;;;2.54;100.00
70971;BME280;58632;51.718;19.446;2023-03-03T12:33:16;99832.13;;;2.37;100.00
70971;BME280;58632;51.718;19.446;2023-03-03T12:36:01;99830.20;;;2.39;100.00
70971;BME280;58632;51.718;19.446;2023-03-03T12:48:16;99831.14;;;2.30;100.00
70971;BME280;58632;51.718;19.446;2023-03-03T12:50:52;99835.11;;;2.21;100.00
70971;BME280;58632;51.718;19.446;2023-03-03T12:56:07;99840.71;;;2.03;100.00
70971;BME280;58632;51.718;19.446;2023-03-03T13:01:27;99836.63;;;2.05;100.00
70971;BME280;58632;51.718;19.446;2023-03-03T13:04:10;99834.51;;;2.02;100.00
70971;BME280;58632;51.718;19.446;2023-03-03T13:06:41;99835.02;;;1.96;100.00
70971;BME280;58632;51.718;19.446;2023-03-03T13:16:48;99826.45;;;1.76;100.00
70971;BME280;58632;51.718;19.446;2023-03-03T13:20:00;99823.25;;;1.75;100.00
70971;BME280;58632;51.718;19.446;2023-03-03T13:22:08;99817.27;;;1.76;100.00
70971;BME280;58632;51.718;19.446;2023-03-03T13:24:53;99819.14;;;1.72;100.00
70971;BME280;58632;51.718;19.446;2023-03-03T13:27:25;99824.37;;;1.61;100.00
70971;BME280;58632;51.718;19.446;2023-03-03T13:29:59;99821.31;;;1.55;100.00
70971;BME280;58632;51.718;19.446;2023-03-03T13:32:34;99822.16;;;1.51;100.00
70971;BME280;58632;51.718;19.446;2023-03-03T13:35:06;99814.71;;;1.51;100.00
70971;BME280;58632;51.718;19.446;2023-03-03T13:37:40;99817.88;;;1.47;100.00
70971;BME280;58632;51.718;19.446;2023-03-03T13:40:18;99809.88;;;1.46;100.00
70971;BME280;58632;51.718;19.446;2023-03-03T13:42:49;99806.08;;;1.53;100.00
70971;BME280;58632;51.718;19.446;2023-03-03T13:45:35;99808.45;;;1.58;100.00
70971;BME280;58632;51.718;19.446;2023-03-03T13:50:37;99806.08;;;1.43;100.00
70971;BME280;58632;51.718;19.446;2023-03-03T13:56:01;99809.50;;;1.29;100.00
70971;BME280;58632;51.718;19.446;2023-03-03T13:58:37;99806.55;;;1.24;100.00
70971;BME280;58632;51.718;19.446;2023-03-03T14:06:14;99814.16;;;1.41;100.00
70971;BME280;58632;51.718;19.446;2023-03-03T14:08:47;99816.41;;;1.38;100.00
70971;BME280;58632;51.718;19.446;2023-03-03T14:11:18;99812.91;;;1.31;100.00
70971;BME280;58632;51.718;19.446;2023-03-03T14:16:33;99811.75;;;1.19;100.00
70971;BME280;58632;51.718;19.446;2023-03-03T14:19:04;99809.45;;;1.13;100.00
70971;BME280;58632;51.718;19.446;2023-03-03T14:21:32;99813.94;;;1.08;100.00
70971;BME280;58632;51.718;19.446;2023-03-03T14:24:10;99814.64;;;1.08;100.00
70971;BME280;58632;51.718;19.446;2023-03-03T14:26:52;99811.73;;;1.09;100.00
70971;BME280;58632;51.718;19.446;2023-03-03T14:31:50;99811.17;;;1.07;100.00
70971;BME280;58632;51.718;19.446;2023-03-03T14:36:47;99801.62;;;1.05;100.00
70971;BME280;58632;51.718;19.446;2023-03-03T14:41:58;99796.06;;;0.98;100.00
70971;BME280;58632;51.718;19.446;2023-03-03T14:44:25;99797.74;;;0.99;100.00
70971;BME280;58632;51.718;19.446;2023-03-03T14:47:04;99794.41;;;1.01;100.00
70971;BME280;58632;51.718;19.446;2023-03-03T14:49:36;99798.42;;;0.96;100.00
70971;BME280;58632;51.718;19.446;2023-03-03T14:52:10;99797.42;;;0.92;100.00
70971;BME280;58632;51.718;19.446;2023-03-03T14:54:52;99797.20;;;0.84;100.00
70971;BME280;58632;51.718;19.446;2023-03-03T14:57:22;99793.71;;;0.78;100.00
70971;BME280;58632;51.718;19.446;2023-03-03T15:03:00;99791.98;;;0.67;100.00
70971;BME280;58632;51.718;19.446;2023-03-03T15:05:26;99791.29;;;0.61;100.00
70971;BME280;58632;51.718;19.446;2023-03-03T15:07:53;99785.15;;;0.56;100.00
70971;BME280;58632;51.718;19.446;2023-03-03T15:10:28;99785.11;;;0.57;100.00
70971;BME280;58632;51.718;19.446;2023-03-03T15:12:54;99784.46;;;0.57;100.00
70971;BME280;58632;51.718;19.446;2023-03-03T15:15:21;99783.19;;;0.60;100.00
70971;BME280;58632;51.718;19.446;2023-03-03T15:20:31;99781.39;;;0.57;100.00
70971;BME280;58632;51.718;19.446;2023-03-03T15:25:32;99782.30;;;0.56;100.00
70971;BME280;58632;51.718;19.446;2023-03-03T15:30:38;99775.29;;;0.50;100.00
70971;BME280;58632;51.718;19.446;2023-03-03T15:33:26;99773.07;;;0.49;100.00
70971;BME280;58632;51.718;19.446;2023-03-03T15:36:01;99770.83;;;0.46;100.00
70971;BME280;58632;51.718;19.446;2023-03-03T15:38:31;99771.02;;;0.43;100.00
70971;BME280;58632;51.718;19.446;2023-03-03T15:41:05;99769.07;;;0.41;100.00
70971;BME280;58632;51.718;19.446;2023-03-03T15:43:35;99770.40;;;0.39;100.00
70971;BME280;58632;51.718;19.446;2023-03-03T15:48:40;99764.51;;;0.37;100.00
70971;BME280;58632;51.718;19.446;2023-03-03T15:53:41;99767.19;;;0.31;100.00
70971;BME280;58632;51.718;19.446;2023-03-03T16:01:33;99778.70;;;0.19;100.00
70971;BME280;58632;51.718;19.446;2023-03-03T16:04:03;99776.02;;;0.14;100.00
70971;BME280;58632;51.718;19.446;2023-03-03T16:06:48;99776.73;;;0.07;100.00